createdAt,value
2023-05-09T00:00:06.249Z,100.00
2023-05-09T00:02:36.299Z,100.00
2023-05-09T00:05:05.468Z,100.00
2023-05-09T00:07:34.308Z,99.68
2023-05-09T00:10:04.812Z,100.00
2023-05-09T00:12:33.490Z,100.00
2023-05-09T00:15:02.050Z,99.72
2023-05-09T00:17:31.114Z,99.60
2023-05-09T00:20:01.585Z,100.00
2023-05-09T00:22:30.330Z,100.00
2023-05-09T00:24:58.932Z,100.00
2023-05-09T00:27:30.492Z,99.80
2023-05-09T00:29:59.107Z,100.00
2023-05-09T00:32:29.055Z,98.50
2023-05-09T00:34:57.831Z,99.21
2023-05-09T00:37:26.826Z,98.97
2023-05-09T00:39:55.450Z,99.08
2023-05-09T00:42:24.055Z,98.89
2023-05-09T00:44:54.034Z,99.30
2023-05-09T00:47:24.981Z,98.41
2023-05-09T00:49:53.623Z,98.05
2023-05-09T00:52:23.438Z,98.92
2023-05-09T00:54:52.740Z,99.05
2023-05-09T00:57:21.687Z,99.15
2023-05-09T00:59:50.794Z,99.99
2023-05-09T01:02:21.039Z,100.00
2023-05-09T01:04:49.674Z,100.00
2023-05-09T01:07:23.839Z,100.00
2023-05-09T01:09:57.888Z,100.00
2023-05-09T01:12:32.582Z,100.00
2023-05-09T01:15:06.765Z,100.00
2023-05-09T01:17:41.463Z,100.00
2023-05-09T01:20:14.447Z,100.00
2023-05-09T01:22:48.243Z,100.00
2023-05-09T01:25:36.012Z,100.00
2023-05-09T01:28:13.963Z,100.00
2023-05-09T01:30:46.809Z,100.00
2023-05-09T01:33:19.129Z,100.00
2023-05-09T01:35:51.250Z,100.00
2023-05-09T01:38:21.533Z,100.00
2023-05-09T01:40:51.551Z,100.00
2023-05-09T01:43:22.720Z,100.00
2023-05-09T01:45:53.148Z,100.00
2023-05-09T01:48:22.265Z,100.00
2023-05-09T01:50:51.014Z,100.00
2023-05-09T01:53:20.421Z,100.00
2023-05-09T01:55:49.802Z,100.00
2023-05-09T01:58:19.547Z,100.00
2023-05-09T02:00:49.273Z,100.00
2023-05-09T02:03:19.431Z,100.00
2023-05-09T02:05:48.448Z,100.00
2023-05-09T02:08:21.069Z,100.00
2023-05-09T02:10:50.561Z,100.00
2023-05-09T02:13:19.260Z,100.00
2023-05-09T02:15:48.074Z,100.00
2023-05-09T02:18:17.231Z,100.00
2023-05-09T02:20:49.046Z,100.00
2023-05-09T02:23:17.784Z,99.81
2023-05-09T02:25:47.056Z,100.00
2023-05-09T02:28:16.177Z,100.00
2023-05-09T02:30:46.834Z,100.00
2023-05-09T02:33:15.744Z,100.00
2023-05-09T02:35:47.296Z,100.00
2023-05-09T02:38:17.458Z,100.00
2023-05-09T02:40:48.428Z,100.00
2023-05-09T02:43:18.076Z,100.00
2023-05-09T02:45:46.778Z,100.00
2023-05-09T02:48:15.813Z,100.00
2023-05-09T02:50:45.925Z,100.00
2023-05-09T02:53:14.515Z,100.00
2023-05-09T02:55:44.680Z,100.00
2023-05-09T02:58:14.783Z,100.00
2023-05-09T03:00:44.095Z,100.00
2023-05-09T03:03:12.785Z,100.00
2023-05-09T03:05:41.490Z,100.00
2023-05-09T03:08:10.102Z,100.00
2023-05-09T03:10:38.695Z,100.00
2023-05-09T03:13:10.343Z,100.00
2023-05-09T03:15:39.090Z,100.00
2023-05-09T03:18:07.824Z,100.00
2023-05-09T03:20:36.457Z,100.00
2023-05-09T03:23:05.097Z,100.00
2023-05-09T03:25:33.729Z,100.00
2023-05-09T03:28:02.352Z,100.00
2023-05-09T03:30:32.316Z,100.00
2023-05-09T03:33:00.996Z,100.00
2023-05-09T03:35:29.679Z,100.00
2023-05-09T03:37:58.273Z,100.00
2023-05-09T03:40:26.867Z,100.00
2023-05-09T03:42:55.496Z,100.00
2023-05-09T03:45:24.147Z,100.00
2023-05-09T03:47:54.102Z,100.00
2023-05-09T03:50:22.786Z,100.00
2023-05-09T03:52:51.423Z,100.00
2023-05-09T03:55:20.074Z,100.00
2023-05-09T03:57:48.702Z,100.00
2023-05-09T04:00:17.841Z,100.00
2023-05-09T04:02:46.519Z,100.00
2023-05-09T04:05:17.052Z,100.00
2023-05-09T04:07:46.048Z,100.00
2023-05-09T04:10:14.675Z,100.00
2023-05-09T04:12:43.274Z,100.00
2023-05-09T04:15:14.707Z,100.00
2023-05-09T04:17:44.004Z,99.87
2023-05-09T04:20:13.456Z,100.00
2023-05-09T04:22:46.100Z,100.00
2023-05-09T04:25:16.055Z,99.86
2023-05-09T04:27:44.889Z,99.89
2023-05-09T04:30:14.220Z,99.74
2023-05-09T04:32:45.817Z,99.70
2023-05-09T04:35:15.662Z,98.89
2023-05-09T04:37:46.702Z,99.18
2023-05-09T04:40:15.417Z,99.35
2023-05-09T04:42:44.086Z,99.59
2023-05-09T04:45:13.183Z,98.88
2023-05-09T04:47:42.166Z,99.76
2023-05-09T04:50:11.562Z,100.00
2023-05-09T04:52:40.140Z,99.29
2023-05-09T04:55:10.783Z,98.86
2023-05-09T04:57:39.741Z,98.40
2023-05-09T05:00:11.330Z,97.88
2023-05-09T05:02:40.069Z,97.70
2023-05-09T05:05:17.618Z,97.83
2023-05-09T05:07:46.347Z,97.51
2023-05-09T05:10:16.536Z,97.09
2023-05-09T05:12:45.229Z,97.28
2023-05-09T05:15:14.407Z,97.38
2023-05-09T05:17:43.205Z,96.83
2023-05-09T05:20:12.434Z,96.82
2023-05-09T05:22:40.997Z,96.14
2023-05-09T05:25:10.212Z,96.19
2023-05-09T05:27:40.107Z,95.52
2023-05-09T05:30:09.875Z,92.27
2023-05-09T05:32:38.568Z,90.59
2023-05-09T05:35:07.875Z,90.63
2023-05-09T05:37:36.566Z,89.39
2023-05-09T05:40:06.158Z,90.53
2023-05-09T05:42:35.049Z,89.39
2023-05-09T05:45:05.423Z,88.15
2023-05-09T05:47:34.582Z,88.80
2023-05-09T05:50:06.357Z,90.49
2023-05-09T05:52:35.292Z,91.30
2023-05-09T05:55:03.976Z,91.47
2023-05-09T05:57:33.192Z,89.55
2023-05-09T06:00:03.303Z,90.90
2023-05-09T06:02:33.435Z,91.64
2023-05-09T06:05:03.645Z,88.29
2023-05-09T06:07:32.251Z,88.52
2023-05-09T06:10:00.824Z,89.27
2023-05-09T06:12:29.501Z,89.37
2023-05-09T06:14:58.085Z,91.02
2023-05-09T06:17:27.067Z,91.21
2023-05-09T06:19:57.107Z,91.28
2023-05-09T06:22:25.720Z,89.47
2023-05-09T06:24:54.423Z,89.83
2023-05-09T06:27:23.103Z,91.04
2023-05-09T06:29:52.692Z,90.28
2023-05-09T06:32:21.377Z,90.10
2023-05-09T06:34:49.977Z,87.04
2023-05-09T06:37:20.002Z,88.97
2023-05-09T06:39:48.681Z,87.22
2023-05-09T06:42:17.720Z,87.09
2023-05-09T06:44:46.431Z,85.91
2023-05-09T06:47:15.064Z,84.92
2023-05-09T06:49:43.765Z,83.20
2023-05-09T06:52:12.897Z,80.07
2023-05-09T06:54:42.902Z,80.01
2023-05-09T06:57:11.595Z,78.25
2023-05-09T06:59:40.233Z,77.00
2023-05-09T07:02:08.925Z,76.19
2023-05-09T07:04:37.570Z,75.44
2023-05-09T07:07:06.290Z,76.67
2023-05-09T07:09:34.981Z,74.42
2023-05-09T07:12:05.530Z,74.04
2023-05-09T07:14:34.141Z,75.39
2023-05-09T07:17:18.079Z,75.46
2023-05-09T07:19:50.284Z,73.52
2023-05-09T07:22:19.075Z,72.19
2023-05-09T07:24:47.946Z,73.40
2023-05-09T07:27:18.024Z,74.65
2023-05-09T07:29:46.630Z,70.98
2023-05-09T07:32:15.548Z,68.88
2023-05-09T07:34:44.248Z,68.50
2023-05-09T07:37:14.529Z,70.21
2023-05-09T07:39:44.987Z,70.34
2023-05-09T07:42:13.648Z,70.20
2023-05-09T07:44:43.633Z,65.84
2023-05-09T07:47:12.304Z,66.81
2023-05-09T07:49:43.186Z,65.38
2023-05-09T07:52:11.861Z,64.41
2023-05-09T07:54:41.110Z,64.83
2023-05-09T07:57:09.850Z,61.39
2023-05-09T07:59:38.608Z,61.19
2023-05-09T08:02:09.338Z,60.41
2023-05-09T08:04:41.236Z,58.39
2023-05-09T08:07:11.864Z,56.97
2023-05-09T08:09:40.689Z,62.14
2023-05-09T08:12:09.564Z,61.38
2023-05-09T08:14:38.236Z,61.79
2023-05-09T08:17:08.301Z,57.06
2023-05-09T08:19:36.961Z,56.67
2023-05-09T08:22:05.813Z,57.85
2023-05-09T08:24:34.456Z,58.71
2023-05-09T08:27:03.094Z,55.96
2023-05-09T08:29:31.942Z,58.73
2023-05-09T08:32:00.642Z,58.95
2023-05-09T08:34:34.429Z,60.03
2023-05-09T08:37:03.619Z,59.60
2023-05-09T08:39:34.971Z,60.38
2023-05-09T08:42:04.112Z,60.49
2023-05-09T08:44:32.733Z,58.78
2023-05-09T08:47:03.220Z,59.06
2023-05-09T08:49:33.435Z,55.06
2023-05-09T08:52:02.781Z,58.13
2023-05-09T08:54:31.583Z,53.75
2023-05-09T08:57:02.279Z,52.69
2023-05-09T08:59:30.997Z,53.57
2023-05-09T09:02:00.211Z,52.03
2023-05-09T09:04:28.928Z,51.96
2023-05-09T09:06:59.246Z,50.29
2023-05-09T09:09:27.900Z,50.61
2023-05-09T09:11:56.786Z,52.28
2023-05-09T09:14:26.612Z,52.88
2023-05-09T09:16:56.829Z,51.21
2023-05-09T09:19:31.696Z,50.99
2023-05-09T09:22:04.450Z,52.27
2023-05-09T09:24:33.262Z,54.16
2023-05-09T09:27:06.266Z,56.33
2023-05-09T09:29:35.406Z,57.12
2023-05-09T09:32:05.043Z,53.55
2023-05-09T09:34:33.832Z,56.71
2023-05-09T09:37:03.896Z,55.50
2023-05-09T09:39:32.462Z,57.54
2023-05-09T09:42:10.989Z,58.59
2023-05-09T09:44:39.598Z,59.27
2023-05-09T09:47:11.131Z,58.57
2023-05-09T09:49:46.362Z,58.92
2023-05-09T09:52:23.656Z,56.23
2023-05-09T09:54:52.342Z,56.02
2023-05-09T09:57:35.374Z,57.16
2023-05-09T10:00:04.811Z,54.14
2023-05-09T10:02:33.964Z,53.59
2023-05-09T10:05:08.809Z,53.36
2023-05-09T10:07:38.820Z,56.21
2023-05-09T10:10:08.404Z,57.30
2023-05-09T10:12:37.731Z,56.68
2023-05-09T10:15:08.653Z,58.85
2023-05-09T10:17:37.413Z,58.18
2023-05-09T10:20:07.513Z,57.25
2023-05-09T10:22:39.622Z,56.78
2023-05-09T10:25:16.483Z,55.23
2023-05-09T10:27:47.612Z,56.74
2023-05-09T10:30:19.271Z,56.05
2023-05-09T10:32:54.314Z,56.43
2023-05-09T10:35:27.466Z,57.06
2023-05-09T10:37:58.085Z,59.91
2023-05-09T10:40:26.998Z,55.21
2023-05-09T10:42:55.828Z,57.66
2023-05-09T10:45:24.794Z,57.51
2023-05-09T10:47:53.939Z,57.21
2023-05-09T10:50:22.838Z,57.93
2023-05-09T10:53:11.930Z,57.22
2023-05-09T10:55:50.091Z,56.80
2023-05-09T10:58:23.785Z,53.22
2023-05-09T11:00:54.599Z,56.41
2023-05-09T11:03:24.785Z,54.06
2023-05-09T11:05:54.704Z,54.04
2023-05-09T11:08:26.280Z,58.01
2023-05-09T11:10:56.249Z,56.29
2023-05-09T11:13:26.370Z,57.75
2023-05-09T11:16:10.719Z,52.61
2023-05-09T11:18:53.403Z,56.39
2023-05-09T11:21:22.415Z,58.39
2023-05-09T11:23:55.158Z,54.06
2023-05-09T11:26:24.563Z,50.57
2023-05-09T11:28:56.705Z,54.17
2023-05-09T11:31:25.468Z,55.53
2023-05-09T11:34:04.322Z,54.51
2023-05-09T11:36:33.727Z,54.87
2023-05-09T11:39:06.361Z,54.68
2023-05-09T11:41:41.092Z,56.62
2023-05-09T11:44:19.318Z,58.83
2023-05-09T11:46:49.453Z,54.08
2023-05-09T11:49:19.490Z,56.21
2023-05-09T11:51:48.186Z,53.92
2023-05-09T11:54:18.184Z,56.54
2023-05-09T11:56:46.904Z,59.72
2023-05-09T11:59:15.853Z,55.61
2023-05-09T12:01:44.597Z,56.85
2023-05-09T12:04:13.401Z,58.57
2023-05-09T12:06:48.381Z,56.56
2023-05-09T12:09:19.948Z,55.45
2023-05-09T12:11:50.082Z,58.75
2023-05-09T12:14:27.984Z,51.68
2023-05-09T12:16:56.643Z,53.83
2023-05-09T12:19:25.827Z,51.60
2023-05-09T12:21:58.311Z,51.93
2023-05-09T12:24:28.906Z,55.04
2023-05-09T12:26:58.598Z,57.62
2023-05-09T12:29:28.228Z,53.78
2023-05-09T12:31:57.270Z,50.84
2023-05-09T12:34:26.036Z,51.50
2023-05-09T12:36:54.674Z,49.98
2023-05-09T12:39:24.419Z,54.01
2023-05-09T12:42:01.617Z,54.12
2023-05-09T12:44:30.759Z,50.42
2023-05-09T12:47:01.263Z,50.39
2023-05-09T12:49:30.813Z,48.98
2023-05-09T12:52:03.706Z,53.90
2023-05-09T12:54:33.184Z,51.35
2023-05-09T12:57:05.539Z,49.76
2023-05-09T12:59:34.172Z,49.89
2023-05-09T13:02:02.973Z,52.94
2023-05-09T13:04:31.648Z,51.77
2023-05-09T13:07:00.413Z,52.13
2023-05-09T13:09:29.542Z,52.09
2023-05-09T13:11:58.236Z,51.36
2023-05-09T13:14:28.526Z,50.35
2023-05-09T13:16:57.301Z,47.87
2023-05-09T13:19:26.060Z,47.64
2023-05-09T13:21:55.913Z,47.45
2023-05-09T13:24:24.635Z,47.40
2023-05-09T13:26:53.223Z,49.53
2023-05-09T13:29:21.853Z,50.60
2023-05-09T13:31:52.129Z,48.45
2023-05-09T13:34:20.771Z,49.36
2023-05-09T13:36:49.452Z,50.34
2023-05-09T13:39:18.132Z,49.83
2023-05-09T13:41:48.536Z,46.10
2023-05-09T13:44:17.154Z,46.37
2023-05-09T13:46:46.589Z,46.14
2023-05-09T13:49:16.852Z,46.35
2023-05-09T13:51:45.490Z,46.77
2023-05-09T13:54:15.446Z,49.43
2023-05-09T13:56:44.265Z,49.41
2023-05-09T13:59:13.180Z,46.16
2023-05-09T14:01:41.855Z,46.81
2023-05-09T14:04:10.582Z,50.49
2023-05-09T14:06:40.687Z,49.49
2023-05-09T14:09:09.895Z,49.35
2023-05-09T14:11:38.499Z,50.57
2023-05-09T14:14:07.229Z,51.86
2023-05-09T14:16:35.921Z,52.15
2023-05-09T14:19:04.605Z,51.88
2023-05-09T14:21:33.234Z,51.63
2023-05-09T14:24:03.196Z,52.59
2023-05-09T14:26:32.226Z,51.62
2023-05-09T14:29:00.948Z,51.92
2023-05-09T14:31:29.721Z,56.27
2023-05-09T14:34:00.134Z,60.79
2023-05-09T14:36:29.098Z,69.42
2023-05-09T14:38:57.798Z,74.44
2023-05-09T14:41:27.822Z,80.50
2023-05-09T14:43:56.414Z,84.81
2023-05-09T14:46:25.592Z,86.63
2023-05-09T14:48:54.700Z,86.14
2023-05-09T14:51:23.381Z,89.84
2023-05-09T14:53:53.363Z,93.63
2023-05-09T14:56:22.062Z,97.12
2023-05-09T14:58:52.074Z,98.89
2023-05-09T15:01:20.788Z,99.68
2023-05-09T15:03:49.458Z,100.00
2023-05-09T15:06:18.334Z,100.00
2023-05-09T15:08:47.102Z,100.00
2023-05-09T15:11:15.714Z,86.49
2023-05-09T15:13:44.308Z,95.41
2023-05-09T15:16:14.330Z,97.16
2023-05-09T15:18:45.360Z,97.95
2023-05-09T15:21:14.219Z,98.43
2023-05-09T15:23:43.144Z,99.84
2023-05-09T15:26:12.404Z,98.90
2023-05-09T15:28:40.999Z,100.00
2023-05-09T15:31:14.318Z,100.00
2023-05-09T15:33:43.164Z,100.00
2023-05-09T15:36:11.882Z,100.00
2023-05-09T15:38:40.733Z,99.14
2023-05-09T15:41:10.592Z,100.00
2023-05-09T15:43:39.243Z,100.00
2023-05-09T15:46:07.998Z,100.00
2023-05-09T15:48:38.013Z,100.00
2023-05-09T15:51:07.171Z,100.00
2023-05-09T15:53:36.415Z,100.00
2023-05-09T15:56:05.485Z,100.00
2023-05-09T15:58:34.166Z,100.00
2023-05-09T16:01:05.681Z,97.27
2023-05-09T16:03:34.759Z,99.51
2023-05-09T16:06:05.267Z,100.00
2023-05-09T16:08:33.956Z,100.00
2023-05-09T16:11:03.345Z,100.00
2023-05-09T16:13:33.005Z,100.00
2023-05-09T16:16:04.064Z,100.00
2023-05-09T16:18:32.728Z,100.00
2023-05-09T16:21:01.414Z,100.00
2023-05-09T16:23:31.423Z,100.00
2023-05-09T16:26:00.089Z,100.00
2023-05-09T16:28:29.475Z,100.00
2023-05-09T16:31:00.064Z,100.00
2023-05-09T16:33:29.174Z,100.00
2023-05-09T16:35:59.073Z,100.00
2023-05-09T16:38:28.411Z,100.00
2023-05-09T16:40:58.450Z,100.00
2023-05-09T16:43:27.129Z,100.00
2023-05-09T16:45:55.731Z,100.00
2023-05-09T16:48:24.433Z,100.00
2023-05-09T16:50:53.957Z,100.00
2023-05-09T16:53:23.145Z,100.00
2023-05-09T16:55:53.859Z,100.00
2023-05-09T16:58:25.105Z,100.00
2023-05-09T17:00:54.933Z,100.00
2023-05-09T17:03:23.976Z,100.00
2023-05-09T17:05:52.586Z,100.00
2023-05-09T17:08:21.303Z,100.00
2023-05-09T17:10:49.929Z,100.00
2023-05-09T17:13:18.554Z,100.00
2023-05-09T17:15:48.624Z,100.00
2023-05-09T17:18:25.442Z,100.00
2023-05-09T17:21:02.667Z,100.00
2023-05-09T17:23:31.657Z,100.00
2023-05-09T17:26:00.387Z,100.00
2023-05-09T17:28:29.022Z,100.00
2023-05-09T17:30:59.546Z,100.00
2023-05-09T17:33:28.186Z,100.00
2023-05-09T17:35:57.399Z,100.00
2023-05-09T17:38:26.015Z,100.00
2023-05-09T17:40:54.693Z,100.00
2023-05-09T17:43:24.080Z,100.00
2023-05-09T17:45:53.038Z,100.00
2023-05-09T17:48:23.126Z,100.00
2023-05-09T17:50:51.838Z,100.00
2023-05-09T17:53:20.565Z,100.00
2023-05-09T17:55:49.141Z,100.00
2023-05-09T17:58:17.799Z,100.00
2023-05-09T18:00:46.542Z,100.00
2023-05-09T18:03:15.310Z,100.00
2023-05-09T18:05:45.423Z,100.00
2023-05-09T18:08:14.012Z,100.00
2023-05-09T18:10:42.723Z,100.00
2023-05-09T18:13:11.596Z,100.00
2023-05-09T18:15:41.165Z,100.00
2023-05-09T18:18:11.588Z,100.00
2023-05-09T18:20:41.717Z,100.00
2023-05-09T18:23:11.696Z,100.00
2023-05-09T18:25:40.357Z,100.00
2023-05-09T18:28:09.416Z,100.00
2023-05-09T18:30:38.852Z,100.00
2023-05-09T18:33:08.059Z,100.00
2023-05-09T18:35:36.835Z,100.00
2023-05-09T18:38:05.488Z,100.00
2023-05-09T18:40:37.114Z,100.00
2023-05-09T18:43:06.274Z,100.00
2023-05-09T18:45:35.635Z,100.00
2023-05-09T18:48:04.884Z,100.00
2023-05-09T18:50:33.623Z,100.00
2023-05-09T18:53:03.028Z,100.00
2023-05-09T18:55:31.984Z,100.00
2023-05-09T18:58:02.027Z,100.00
2023-05-09T19:00:30.891Z,100.00
2023-05-09T19:02:59.675Z,100.00
2023-05-09T19:05:28.473Z,100.00
2023-05-09T19:07:57.194Z,100.00
2023-05-09T19:10:25.934Z,100.00
2023-05-09T19:12:56.330Z,100.00
2023-05-09T19:15:26.506Z,100.00
2023-05-09T19:17:55.178Z,100.00
2023-05-09T19:20:25.009Z,100.00
2023-05-09T19:22:53.860Z,100.00
2023-05-09T19:25:22.659Z,100.00
2023-05-09T19:27:52.610Z,100.00
2023-05-09T19:30:21.423Z,100.00
2023-05-09T19:32:51.451Z,100.00
2023-05-09T19:35:20.925Z,100.00
2023-05-09T19:37:49.611Z,100.00
2023-05-09T19:40:18.478Z,100.00
2023-05-09T19:42:47.211Z,100.00
2023-05-09T19:45:15.875Z,100.00
2023-05-09T19:47:44.669Z,100.00
2023-05-09T19:50:14.811Z,100.00
2023-05-09T19:52:43.619Z,100.00
2023-05-09T19:55:12.539Z,100.00
2023-05-09T19:57:41.598Z,100.00
2023-05-09T20:00:11.381Z,100.00
2023-05-09T20:02:40.217Z,100.00
2023-05-09T20:05:09.796Z,100.00
2023-05-09T20:07:39.858Z,100.00
2023-05-09T20:10:09.361Z,100.00
2023-05-09T20:12:38.025Z,100.00
2023-05-09T20:15:07.980Z,100.00
2023-05-09T20:17:36.622Z,100.00
2023-05-09T20:20:06.153Z,100.00
2023-05-09T20:22:34.756Z,100.00
2023-05-09T20:25:05.201Z,100.00
2023-05-09T20:27:35.373Z,100.00
2023-05-09T20:30:04.317Z,100.00
2023-05-09T20:32:33.028Z,100.00
2023-05-09T20:35:01.677Z,100.00
2023-05-09T20:37:30.369Z,100.00
2023-05-09T20:39:59.050Z,100.00
2023-05-09T20:42:29.697Z,100.00
2023-05-09T20:44:58.286Z,100.00
2023-05-09T20:47:27.186Z,100.00
2023-05-09T20:49:58.099Z,100.00
2023-05-09T20:52:27.197Z,100.00
2023-05-09T20:54:55.873Z,100.00
2023-05-09T20:57:24.514Z,100.00
2023-05-09T20:59:54.510Z,100.00
2023-05-09T21:02:23.184Z,100.00
2023-05-09T21:04:51.822Z,100.00
2023-05-09T21:07:20.674Z,100.00
2023-05-09T21:09:50.723Z,100.00
2023-05-09T21:12:19.546Z,100.00
2023-05-09T21:14:48.934Z,100.00
2023-05-09T21:17:19.264Z,100.00
2023-05-09T21:19:51.394Z,100.00
2023-05-09T21:22:20.113Z,100.00
2023-05-09T21:24:48.778Z,100.00
2023-05-09T21:27:17.636Z,100.00
2023-05-09T21:29:49.192Z,100.00
2023-05-09T21:32:19.176Z,100.00
2023-05-09T21:34:48.758Z,100.00
2023-05-09T21:37:17.428Z,100.00
2023-05-09T21:39:46.134Z,100.00
2023-05-09T21:42:14.792Z,100.00
2023-05-09T21:44:43.455Z,100.00
2023-05-09T21:47:12.717Z,100.00
2023-05-09T21:49:42.792Z,100.00
2023-05-09T21:52:11.454Z,100.00
2023-05-09T21:54:40.076Z,100.00
2023-05-09T21:57:08.651Z,100.00
2023-05-09T21:59:37.616Z,100.00
2023-05-09T22:02:06.294Z,100.00
2023-05-09T22:04:34.957Z,100.00
2023-05-09T22:07:04.978Z,100.00
2023-05-09T22:09:33.678Z,100.00
2023-05-09T22:12:02.290Z,100.00
2023-05-09T22:14:35.206Z,100.00
2023-05-09T22:17:08.374Z,100.00
2023-05-09T22:19:38.261Z,100.00
2023-05-09T22:22:08.207Z,100.00
2023-05-09T22:24:37.514Z,100.00
2023-05-09T22:27:06.331Z,100.00
2023-05-09T22:29:35.118Z,100.00
2023-05-09T22:32:03.860Z,100.00
2023-05-09T22:34:32.503Z,100.00
2023-05-09T22:37:01.133Z,100.00
2023-05-09T22:39:31.103Z,100.00
2023-05-09T22:41:59.682Z,100.00
2023-05-09T22:44:28.358Z,100.00
2023-05-09T22:46:56.945Z,100.00
2023-05-09T22:49:25.541Z,100.00
2023-05-09T22:51:54.225Z,100.00
2023-05-09T22:54:23.008Z,100.00
2023-05-09T22:56:52.940Z,100.00
2023-05-09T22:59:21.495Z,100.00
2023-05-09T23:01:50.296Z,100.00
2023-05-09T23:04:18.942Z,100.00
2023-05-09T23:06:47.557Z,100.00
2023-05-09T23:09:16.157Z,100.00
2023-05-09T23:11:44.753Z,100.00
2023-05-09T23:14:14.881Z,100.00
2023-05-09T23:16:43.607Z,100.00
2023-05-09T23:19:12.166Z,100.00
2023-05-09T23:21:40.784Z,100.00
2023-05-09T23:24:09.646Z,100.00
2023-05-09T23:26:38.321Z,100.00
2023-05-09T23:29:06.946Z,100.00
2023-05-09T23:31:37.096Z,100.00
2023-05-09T23:34:05.685Z,100.00
2023-05-09T23:36:34.322Z,100.00
2023-05-09T23:39:03.576Z,100.00
2023-05-09T23:41:32.174Z,100.00
2023-05-09T23:44:01.906Z,100.00
2023-05-09T23:46:30.757Z,100.00
2023-05-09T23:49:00.866Z,100.00
2023-05-09T23:51:29.496Z,100.00
2023-05-09T23:53:58.089Z,100.00
2023-05-09T23:56:26.726Z,100.00
2023-05-09T23:58:55.581Z,100.00
